Time;durP1;ratioP1;P1;durP2;ratioP2;P2;SDS_P1;SDS_P2;PMS_P1;PMS_P2;Temp;Humidity;BMP_temperature;BMP_pressure;BME280_temperature;BME280_humidity;BME280_pressure;Samples;Min_cycle;Max_cycle;Signal;HPM_P1;HPM_P2
2021/12/14 00:00:32;;;;;;;23.13;16.63;;;8.60;99.90;;;;;;5113471;28;20100;-72
2021/12/14 00:02:58;;;;;;;22.02;16.60;;;8.60;99.90;;;;;;5113316;28;20076;-72
2021/12/14 00:05:28;;;;;;;23.83;15.88;;;8.60;99.90;;;;;;5113204;28;20122;-72
2021/12/14 00:07:56;;;;;;;23.10;16.40;;;8.60;99.90;;;;;;5113460;28;20052;-72
2021/12/14 00:10:49;;;;;;;19.70;15.70;;;8.60;99.90;;;;;;5094760;28;20047;-72
2021/12/14 00:13:29;;;;;;;23.17;16.35;;;8.60;99.90;;;;;;5113142;28;20504;-72
2021/12/14 00:15:56;;;;;;;23.10;15.80;;;8.60;99.90;;;;;;5112840;28;20048;-72
2021/12/14 00:18:22;;;;;;;21.40;17.05;;;8.60;99.90;;;;;;5094674;28;20039;-72
2021/12/14 00:20:59;;;;;;;19.38;15.30;;;8.60;99.90;;;;;;5095051;28;20040;-72
2021/12/14 00:26:14;;;;;;;23.35;15.73;;;8.60;99.90;;;;;;5094769;28;20052;-72
2021/12/14 00:28:40;;;;;;;22.38;15.77;;;8.60;99.90;;;;;;5094861;28;20096;-72
2021/12/14 00:31:15;;;;;;;21.17;14.98;;;8.60;99.90;;;;;;5113131;28;20051;-72
2021/12/14 00:33:43;;;;;;;25.48;15.90;;;8.60;99.90;;;;;;5094544;28;20126;-72
2021/12/14 00:36:11;;;;;;;23.35;15.55;;;8.70;99.90;;;;;;5094358;28;20533;-72
2021/12/14 00:38:39;;;;;;;19.88;16.33;;;8.60;99.90;;;;;;5094800;28;20043;-72
2021/12/14 00:41:13;;;;;;;23.38;15.70;;;8.60;99.90;;;;;;5112653;28;20048;-72
2021/12/14 00:43:39;;;;;;;20.25;14.93;;;8.60;99.90;;;;;;5113001;28;20090;-73
2021/12/14 00:46:05;;;;;;;23.25;16.00;;;8.60;99.90;;;;;;5094746;28;20131;-73
2021/12/14 00:48:31;;;;;;;23.75;15.82;;;8.60;99.90;;;;;;5112158;28;20691;-72
2021/12/14 00:50:59;;;;;;;20.85;15.27;;;8.60;99.90;;;;;;5112771;28;20127;-72
2021/12/14 00:53:26;;;;;;;21.83;15.02;;;8.60;99.90;;;;;;5112062;28;20044;-72
2021/12/14 00:55:54;;;;;;;22.02;15.43;;;8.50;99.90;;;;;;5112100;28;20067;-72
2021/12/14 00:58:20;;;;;;;22.80;16.05;;;8.60;99.90;;;;;;5112633;28;20043;-72
2021/12/14 01:00:55;;;;;;;21.35;15.68;;;8.60;99.90;;;;;;5105702;28;20590;-72
2021/12/14 01:03:22;;;;;;;21.42;14.77;;;8.60;99.90;;;;;;5089189;28;20387;-72
2021/12/14 01:05:49;;;;;;;20.25;15.52;;;8.60;99.90;;;;;;5077233;28;20044;-72
2021/12/14 01:08:20;;;;;;;21.02;15.95;;;8.50;99.90;;;;;;5084313;28;20409;-72
2021/12/14 01:11:04;;;;;;;22.42;16.33;;;8.50;99.90;;;;;;5061833;28;20151;-72
2021/12/14 01:13:32;;;;;;;20.40;15.43;;;8.50;99.90;;;;;;5053650;28;20048;-72
2021/12/14 01:16:19;;;;;;;25.75;16.67;;;8.50;99.90;;;;;;5071120;28;20101;-72
2021/12/14 01:18:51;;;;;;;23.10;16.17;;;8.50;99.90;;;;;;5060568;28;20421;-72
2021/12/14 01:21:44;;;;;;;21.38;15.18;;;8.50;99.90;;;;;;5057131;28;20055;-72
2021/12/14 01:27:02;;;;;;;22.40;14.20;;;8.50;99.90;;;;;;5091267;28;20082;-73
2021/12/14 01:29:29;;;;;;;19.40;14.35;;;8.50;99.90;;;;;;5091150;28;20052;-72
2021/12/14 01:32:00;;;;;;;18.13;13.30;;;8.50;99.90;;;;;;5091404;28;20050;-72
2021/12/14 01:34:27;;;;;;;24.27;15.48;;;8.50;99.90;;;;;;5091415;28;20551;-72
2021/12/14 01:36:57;;;;;;;21.63;15.00;;;8.50;99.90;;;;;;5074834;28;20045;-72
2021/12/14 01:42:23;;;;;;;20.42;14.23;;;8.50;99.90;;;;;;5070932;28;20087;-72
2021/12/14 01:45:11;;;;;;;19.33;14.38;;;8.50;99.90;;;;;;5053505;28;20194;-72
2021/12/14 01:47:52;;;;;;;20.48;14.05;;;8.50;99.90;;;;;;5052606;28;20052;-72
2021/12/14 01:50:25;;;;;;;20.83;14.15;;;8.50;99.90;;;;;;5070877;28;20559;-72
2021/12/14 01:52:51;;;;;;;17.98;14.05;;;8.50;99.90;;;;;;5052587;28;20045;-72
2021/12/14 01:55:23;;;;;;;21.00;14.68;;;8.50;99.90;;;;;;5070699;28;20048;-72
2021/12/14 01:57:49;;;;;;;19.15;13.52;;;8.50;99.90;;;;;;5070536;28;20120;-72
2021/12/14 02:00:21;;;;;;;19.80;12.68;;;8.50;99.90;;;;;;5052697;28;20055;-72
2021/12/14 02:02:48;;;;;;;20.38;14.50;;;8.50;99.90;;;;;;5052853;28;20128;-72
2021/12/14 02:05:26;;;;;;;18.58;13.18;;;8.50;99.90;;;;;;5070088;28;20056;-72
2021/12/14 02:07:54;;;;;;;19.25;13.88;;;8.50;99.90;;;;;;5059002;28;20526;-73
2021/12/14 02:10:36;;;;;;;18.60;14.60;;;8.50;99.90;;;;;;5090617;28;20048;-72
2021/12/14 02:13:04;;;;;;;18.65;14.15;;;8.50;99.90;;;;;;5072666;28;20052;-72
2021/12/14 02:15:39;;;;;;;24.35;13.80;;;8.50;99.90;;;;;;5090652;28;20055;-72
2021/12/14 02:18:11;;;;;;;22.33;15.52;;;8.50;99.90;;;;;;5072326;28;20044;-72
2021/12/14 02:20:38;;;;;;;19.70;14.52;;;8.50;99.90;;;;;;5072277;28;20132;-72
2021/12/14 02:23:06;;;;;;;21.75;14.95;;;8.50;99.90;;;;;;5072233;28;20674;-72
2021/12/14 02:25:32;;;;;;;21.88;15.02;;;8.50;99.90;;;;;;5090592;28;20055;-73
2021/12/14 02:28:02;;;;;;;22.83;15.57;;;8.50;99.90;;;;;;5072164;28;20048;-72
2021/12/14 02:30:30;;;;;;;24.60;15.88;;;8.50;99.90;;;;;;5072016;28;20054;-72
2021/12/14 02:32:56;;;;;;;;;;;8.50;99.90;;;;;;5090663;28;20087;-72
2021/12/14 02:35:23;;;;;;;;;;;8.50;99.90;;;;;;5072706;28;19920;-72
2021/12/14 02:37:51;;;;;;;;;;;8.40;99.90;;;;;;5072554;28;19919;-72
2021/12/14 02:43:15;;;;;;;;;;;8.40;99.90;;;;;;5072151;28;20414;-72
2021/12/14 02:45:41;;;;;;;28.90;18.67;;;8.30;99.90;;;;;;5055067;28;20061;-73
2021/12/14 02:48:09;;;;;;;34.35;21.17;;;8.40;99.90;;;;;;5071024;28;20099;-73
2021/12/14 02:50:35;;;;;;;31.88;21.83;;;8.30;99.90;;;;;;5071606;28;20048;-72
2021/12/14 02:53:00;;;;;;;33.05;22.35;;;8.30;99.90;;;;;;5089717;28;20096;-72
2021/12/14 02:55:27;;;;;;;31.98;22.42;;;8.30;99.90;;;;;;5072108;28;20044;-72
2021/12/14 02:57:58;;;;;;;31.92;20.60;;;8.30;99.90;;;;;;5071347;28;20055;-72
2021/12/14 03:00:35;;;;;;;29.90;21.40;;;8.30;99.90;;;;;;5071697;28;20048;-72
2021/12/14 03:03:04;;;;;;;30.63;21.27;;;8.30;99.90;;;;;;5071584;28;20044;-72
2021/12/14 03:05:34;;;;;;;30.52;21.00;;;8.30;99.90;;;;;;5071387;28;20040;-73
2021/12/14 03:08:07;;;;;;;32.67;20.42;;;8.30;99.90;;;;;;5089112;28;20513;-72
2021/12/14 03:10:51;;;;;;;27.98;20.83;;;8.30;99.90;;;;;;5071083;28;20051;-72
2021/12/14 03:13:19;;;;;;;35.05;22.60;;;8.30;99.90;;;;;;5089502;28;20089;-72
2021/12/14 03:15:52;;;;;;;34.83;22.05;;;8.30;99.90;;;;;;5088390;28;20406;-72
2021/12/14 03:18:25;;;;;;;32.47;22.67;;;8.30;99.90;;;;;;5088470;28;20075;-72
2021/12/14 03:20:57;;;;;;;31.85;21.90;;;8.30;99.90;;;;;;5071771;28;20551;-73
2021/12/14 03:23:30;;;;;;;32.13;22.83;;;8.20;99.90;;;;;;5089522;28;20070;-72
2021/12/14 03:25:59;;;;;;;34.35;22.65;;;8.30;99.90;;;;;;5089654;28;20101;-73
2021/12/14 03:28:26;;;;;;;33.83;22.38;;;8.30;99.90;;;;;;5089440;28;20036;-72
2021/12/14 03:31:11;;;;;;;32.22;22.00;;;8.30;99.90;;;;;;5071343;28;20044;-72
2021/12/14 03:33:51;;;;;;;31.92;21.90;;;8.30;99.90;;;;;;5071476;28;20309;-73
2021/12/14 03:36:26;;;;;;;36.00;23.52;;;8.30;99.90;;;;;;5055018;28;20433;-73
2021/12/14 03:39:07;;;;;;;35.95;22.58;;;8.30;99.90;;;;;;5071321;28;20044;-72
2021/12/14 03:41:41;;;;;;;37.17;23.88;;;8.30;99.90;;;;;;5089132;28;20193;-72
2021/12/14 03:44:33;;;;;;;34.63;23.15;;;8.30;99.90;;;;;;5071649;28;20048;-72
2021/12/14 03:47:07;;;;;;;32.25;22.38;;;8.30;99.90;;;;;;5079895;28;20056;-73
2021/12/14 03:49:38;;;;;;;35.42;23.02;;;8.30;99.90;;;;;;5071287;28;20514;-72
2021/12/14 03:52:09;;;;;;;34.60;23.25;;;8.30;99.90;;;;;;5070886;28;20213;-73
2021/12/14 03:54:35;;;;;;;36.40;23.77;;;8.30;99.90;;;;;;5089450;28;20047;-72
2021/12/14 03:57:01;;;;;;;33.15;22.75;;;8.30;99.90;;;;;;5070962;28;20460;-72
2021/12/14 03:59:30;;;;;;;35.60;23.75;;;8.30;99.90;;;;;;5071330;28;20117;-72
2021/12/14 04:01:58;;;;;;;36.08;23.95;;;8.30;99.90;;;;;;5071046;28;20491;-73
2021/12/14 04:04:39;;;;;;;32.17;22.60;;;8.30;99.90;;;;;;5071099;28;20050;-73
2021/12/14 04:07:10;;;;;;;31.48;21.90;;;8.40;99.90;;;;;;5071162;28;20059;-73
2021/12/14 04:09:37;;;;;;;36.28;23.77;;;8.40;99.90;;;;;;5054870;28;20067;-72
2021/12/14 04:12:06;;;;;;;34.50;22.65;;;8.40;99.90;;;;;;5070763;28;20079;-73
2021/12/14 04:14:36;;;;;;;35.40;24.10;;;8.40;99.90;;;;;;5054406;28;20346;-72
2021/12/14 04:17:03;;;;;;;33.35;23.65;;;8.40;99.90;;;;;;5070811;28;20101;-72
2021/12/14 04:19:30;;;;;;;33.55;22.73;;;8.40;99.90;;;;;;5054385;28;20060;-73
2021/12/14 04:22:00;;;;;;;33.45;22.83;;;8.40;99.90;;;;;;5070710;28;20055;-73
2021/12/14 04:24:29;;;;;;;37.88;24.33;;;8.40;99.90;;;;;;5054141;28;20113;-73
2021/12/14 04:26:56;;;;;;;35.08;24.13;;;8.40;99.90;;;;;;5070859;28;20039;-72
2021/12/14 04:29:22;;;;;;;38.08;23.27;;;8.40;99.90;;;;;;5071811;28;20046;-72
2021/12/14 04:31:50;;;;;;;34.35;24.77;;;8.40;99.90;;;;;;5074012;28;20847;-72
2021/12/14 04:34:17;;;;;;;36.60;23.92;;;8.40;99.90;;;;;;5074663;28;20044;-73
2021/12/14 04:36:51;;;;;;;32.40;22.20;;;8.40;99.90;;;;;;5074544;28;20044;-72
2021/12/14 04:53:21;;;;;;;40.42;26.85;;;8.40;99.90;;;;;;5074121;28;20060;-72
2021/12/14 04:55:50;;;;;;;40.58;27.20;;;8.30;99.90;;;;;;5092354;28;20100;-73
2021/12/14 04:58:33;;;;;;;39.10;25.08;;;8.40;99.90;;;;;;5073538;28;20056;-72
2021/12/14 05:01:00;;;;;;;40.28;25.98;;;8.40;99.90;;;;;;5092150;28;20044;-72
2021/12/14 05:03:32;;;;;;;41.15;25.33;;;8.40;99.90;;;;;;5091976;28;20513;-72
2021/12/14 05:06:14;;;;;;;41.33;25.92;;;8.40;99.90;;;;;;5073612;28;20490;-72
2021/12/14 05:11:12;;;;;;;38.72;26.05;;;8.40;99.90;;;;;;5074023;28;20395;-72
2021/12/14 05:13:50;;;;;;;42.88;26.58;;;8.40;99.90;;;;;;5073758;28;20101;-72
2021/12/14 05:16:22;;;;;;;42.92;25.88;;;8.40;99.90;;;;;;5073564;28;20498;-72
2021/12/14 05:19:02;;;;;;;44.88;27.48;;;8.30;99.90;;;;;;5091988;28;20142;-72
2021/12/14 05:21:32;;;;;;;41.17;26.20;;;8.30;99.90;;;;;;5056794;28;20052;-72
2021/12/14 05:24:00;;;;;;;46.30;27.58;;;8.30;99.90;;;;;;5073093;28;20042;-72
2021/12/14 05:26:27;;;;;;;42.42;26.23;;;8.30;99.90;;;;;;5073511;28;20079;-72
2021/12/14 05:28:53;;;;;;;42.90;26.80;;;8.30;99.90;;;;;;5073378;28;20127;-72
2021/12/14 05:31:19;;;;;;;42.13;26.45;;;8.30;99.90;;;;;;5073546;28;20051;-72
2021/12/14 05:33:45;;;;;;;45.78;28.20;;;8.30;99.90;;;;;;5073204;28;20101;-72
2021/12/14 05:36:15;;;;;;;41.80;27.83;;;8.30;99.90;;;;;;5072526;28;20044;-72
2021/12/14 05:44:15;;;;;;;39.13;26.60;;;8.30;99.90;;;;;;5072800;28;20394;-73
2021/12/14 05:46:49;;;;;;;45.05;27.88;;;8.40;99.90;;;;;;5091126;28;20067;-72
2021/12/14 05:49:23;;;;;;;41.53;27.00;;;8.40;99.90;;;;;;5090873;28;20129;-72
2021/12/14 05:51:52;;;;;;;41.65;27.50;;;8.40;99.90;;;;;;5072820;28;20040;-72
2021/12/14 05:54:27;;;;;;;41.75;28.02;;;8.40;99.90;;;;;;5090784;28;20051;-73
2021/12/14 05:56:54;;;;;;;46.45;27.67;;;8.40;99.90;;;;;;5090660;28;20056;-72
2021/12/14 05:59:22;;;;;;;43.35;28.83;;;8.40;99.90;;;;;;5090795;28;20044;-72
2021/12/14 06:01:48;;;;;;;46.72;29.15;;;8.40;99.90;;;;;;5072906;28;20044;-72
2021/12/14 06:04:14;;;;;;;46.58;29.08;;;8.40;99.90;;;;;;5072406;28;20445;-72
2021/12/14 06:06:43;;;;;;;41.38;27.02;;;8.40;99.90;;;;;;5091101;28;20055;-72
2021/12/14 06:09:20;;;;;;;46.67;29.10;;;8.40;99.90;;;;;;5086321;28;20155;-72
2021/12/14 06:11:48;;;;;;;48.15;29.67;;;8.40;99.90;;;;;;5089064;28;20048;-72
2021/12/14 06:14:17;;;;;;;47.83;28.98;;;8.40;99.90;;;;;;5089369;28;20108;-72
2021/12/14 06:16:44;;;;;;;53.13;30.30;;;8.40;99.90;;;;;;5089512;28;20405;-73
2021/12/14 06:19:23;;;;;;;54.25;30.48;;;8.40;99.90;;;;;;5090803;28;20052;-73
2021/12/14 06:21:57;;;;;;;51.95;31.65;;;8.40;99.90;;;;;;5090503;28;20059;-73
2021/12/14 06:24:24;;;;;;;;;;;8.40;99.90;;;;;;5089490;28;20048;-73
2021/12/14 06:26:53;;;;;;;50.45;30.45;;;8.30;99.90;;;;;;5089321;28;20020;-73
2021/12/14 06:29:30;;;;;;;56.78;33.40;;;8.30;99.90;;;;;;5088818;28;20051;-72
2021/12/14 06:31:56;;;;;;;53.85;32.10;;;8.30;99.90;;;;;;5088888;28;20044;-72
2021/12/14 06:34:29;;;;;;;64.53;35.15;;;8.30;99.90;;;;;;5088701;28;20040;-72
2021/12/14 06:37:03;;;;;;;63.50;33.90;;;8.30;99.90;;;;;;5089141;28;20051;-73
2021/12/14 06:39:48;;;;;;;;;;;8.30;99.90;;;;;;5090539;28;20052;-73
2021/12/14 06:42:14;;;;;;;;;;;8.30;99.90;;;;;;5105741;28;19943;-73
2021/12/14 06:44:39;;;;;;;58.83;33.72;;;8.30;99.90;;;;;;5088983;28;20401;-73
2021/12/14 06:47:05;;;;;;;60.50;32.38;;;8.30;99.90;;;;;;5089015;28;20370;-73
2021/12/14 06:49:31;;;;;;;54.30;30.85;;;8.30;99.90;;;;;;5089783;28;20052;-72
2021/12/14 06:51:57;;;;;;;59.97;34.53;;;8.30;99.90;;;;;;5088081;28;20554;-72
2021/12/14 06:54:26;;;;;;;56.67;34.05;;;8.30;99.90;;;;;;5087526;28;20417;-72
2021/12/14 06:56:58;;;;;;;60.10;33.60;;;8.30;99.90;;;;;;5082957;28;20099;-71
2021/12/14 06:59:25;;;;;;;63.92;36.22;;;8.30;99.90;;;;;;5087626;28;20134;-70
2021/12/14 07:01:55;;;;;;;59.00;33.40;;;8.30;99.90;;;;;;5087244;28;20047;-71
2021/12/14 07:04:25;;;;;;;62.80;34.17;;;8.30;99.90;;;;;;5070167;28;20036;-71
2021/12/14 07:07:00;;;;;;;61.10;33.55;;;8.30;99.90;;;;;;5087149;28;20123;-71
2021/12/14 07:09:33;;;;;;;60.72;33.08;;;8.30;99.90;;;;;;5103861;28;20051;-71
2021/12/14 07:12:25;;;;;;;65.05;35.90;;;8.30;99.90;;;;;;5085588;28;20101;-71
2021/12/14 07:15:03;;;;;;;59.60;33.10;;;8.30;99.90;;;;;;5063555;28;20055;-71
2021/12/14 07:17:42;;;;;;;64.20;36.45;;;8.30;99.90;;;;;;5083470;28;20048;-71
2021/12/14 07:20:13;;;;;;;63.28;35.88;;;8.30;99.90;;;;;;5081973;28;20043;-71
2021/12/14 07:22:44;;;;;;;58.08;34.25;;;8.30;99.90;;;;;;5108524;28;20052;-71
2021/12/14 07:25:23;;;;;;;61.13;36.67;;;8.30;99.90;;;;;;5063158;28;20129;-71
2021/12/14 07:28:04;;;;;;;60.03;34.88;;;8.30;99.90;;;;;;5080215;28;20047;-71
2021/12/14 07:30:40;;;;;;;65.53;37.00;;;8.30;99.90;;;;;;5070202;28;20052;-73
2021/12/14 07:33:28;;;;;;;65.30;38.17;;;8.30;99.90;;;;;;5088367;28;20056;-72
2021/12/14 07:35:59;;;;;;;64.78;36.15;;;8.30;99.90;;;;;;5106188;28;20081;-72
2021/12/14 07:38:33;;;;;;;65.20;35.42;;;8.30;99.90;;;;;;5107514;28;20051;-72
2021/12/14 07:41:20;;;;;;;65.53;37.40;;;8.40;99.90;;;;;;5090288;28;20089;-72
2021/12/14 07:44:02;;;;;;;61.25;37.00;;;8.40;99.90;;;;;;5090811;28;20054;-72
2021/12/14 07:46:32;;;;;;;60.95;36.58;;;8.40;99.90;;;;;;5108623;28;20126;-72
2021/12/14 07:49:06;;;;;;;69.45;38.75;;;8.40;99.90;;;;;;5106760;28;20047;-73
2021/12/14 07:51:33;;;;;;;64.22;36.65;;;8.40;99.90;;;;;;5108364;28;20075;-72
2021/12/14 07:54:10;;;;;;;65.80;36.58;;;8.40;99.90;;;;;;5107012;28;20406;-73
2021/12/14 07:56:44;;;;;;;68.95;37.75;;;8.40;99.90;;;;;;5108361;28;20051;-72
2021/12/14 07:59:21;;;;;;;62.92;33.50;;;8.40;99.90;;;;;;5072669;28;20054;-72
2021/12/14 08:01:49;;;;;;;65.50;35.55;;;8.40;99.90;;;;;;5070245;28;20083;-72
2021/12/14 08:04:15;;;;;;;64.22;36.20;;;8.40;99.90;;;;;;5089986;28;20040;-72
2021/12/14 08:06:54;;;;;;;76.80;38.53;;;8.40;99.90;;;;;;5092218;28;20059;-73
2021/12/14 08:09:32;;;;;;;66.97;36.20;;;8.40;99.90;;;;;;5091971;28;20775;-72
2021/12/14 08:11:58;;;;;;;66.60;36.00;;;8.40;99.90;;;;;;5091709;28;20561;-72
2021/12/14 08:14:27;;;;;;;69.00;37.22;;;8.40;99.90;;;;;;5094441;28;20047;-73
2021/12/14 08:17:06;;;;;;;71.25;38.28;;;8.40;99.90;;;;;;5101551;28;20084;-73
2021/12/14 08:19:38;;;;;;;70.40;38.72;;;8.40;99.90;;;;;;5110424;28;20051;-73
2021/12/14 08:22:13;;;;;;;73.97;39.83;;;8.40;99.90;;;;;;5090921;28;20469;-72
2021/12/14 08:24:46;;;;;;;73.70;36.85;;;8.40;99.90;;;;;;5090703;28;20075;-72
2021/12/14 08:27:12;;;;;;;74.97;38.40;;;8.40;99.90;;;;;;5075261;28;20030;-73
2021/12/14 08:29:38;;;;;;;72.70;38.60;;;8.40;99.90;;;;;;5092787;28;20043;-72
2021/12/14 08:32:13;;;;;;;82.13;40.55;;;8.40;99.90;;;;;;5095762;28;20086;-72
2021/12/14 08:34:43;;;;;;;89.55;40.58;;;8.40;99.90;;;;;;5078107;28;20052;-73
2021/12/14 08:37:19;;;;;;;81.82;39.22;;;8.40;99.90;;;;;;5086014;28;20055;-72
2021/12/14 08:39:47;;;;;;;77.63;39.13;;;8.50;99.90;;;;;;5111855;28;20054;-72
2021/12/14 08:42:29;;;;;;;76.35;38.65;;;8.50;99.90;;;;;;5093484;28;20058;-73
2021/12/14 08:44:58;;;;;;;80.38;39.85;;;8.50;99.90;;;;;;5092550;28;20040;-72
2021/12/14 08:47:32;;;;;;;89.63;41.72;;;8.50;99.90;;;;;;5104173;28;20039;-72
2021/12/14 08:50:02;;;;;;;84.50;41.23;;;8.50;99.90;;;;;;5091478;28;20131;-72
2021/12/14 08:52:30;;;;;;;83.65;39.95;;;8.50;99.90;;;;;;5093288;28;20051;-72
2021/12/14 08:54:55;;;;;;;80.30;39.53;;;8.50;99.90;;;;;;5110779;28;20409;-72
2021/12/14 08:57:24;;;;;;;81.43;39.25;;;8.50;99.90;;;;;;5111443;28;20054;-73
2021/12/14 08:59:54;;;;;;;78.68;37.58;;;8.50;99.90;;;;;;5111410;28;20043;-72
2021/12/14 09:02:22;;;;;;;88.18;40.78;;;8.50;99.90;;;;;;5111284;28;20040;-73
2021/12/14 09:04:56;;;;;;;78.80;39.05;;;8.50;99.90;;;;;;5111192;28;20126;-72
2021/12/14 09:07:26;;;;;;;95.43;45.35;;;8.50;99.90;;;;;;5111443;28;20663;-73
2021/12/14 09:09:53;;;;;;;91.68;42.30;;;8.50;99.90;;;;;;5104408;28;20039;-72
2021/12/14 09:12:27;;;;;;;97.68;44.53;;;8.50;99.90;;;;;;5110995;28;20120;-72
2021/12/14 09:14:56;;;;;;;99.25;44.92;;;8.50;99.90;;;;;;5109989;28;20425;-73
2021/12/14 09:17:23;;;;;;;111.43;45.42;;;8.50;99.90;;;;;;5107264;28;20042;-73
2021/12/14 09:19:56;;;;;;;116.35;46.67;;;8.50;99.90;;;;;;5093096;28;20417;-73
2021/12/14 09:22:35;;;;;;;113.68;46.10;;;8.50;99.90;;;;;;5092376;28;20069;-73
2021/12/14 09:25:03;;;;;;;116.68;45.58;;;8.50;99.90;;;;;;5106556;28;20130;-73
2021/12/14 09:27:31;;;;;;;115.07;46.70;;;8.50;99.90;;;;;;5091721;28;20051;-73
2021/12/14 09:29:58;;;;;;;100.65;43.08;;;8.50;99.90;;;;;;5109329;28;20130;-73
2021/12/14 09:32:28;;;;;;;110.90;45.40;;;8.50;99.90;;;;;;5104110;28;20043;-73
2021/12/14 09:34:58;;;;;;;118.78;46.60;;;8.60;99.90;;;;;;5106275;28;20071;-73
2021/12/14 09:37:26;;;;;;;124.70;45.90;;;8.50;99.90;;;;;;5108787;28;20048;-73
2021/12/14 09:40:06;;;;;;;110.55;45.15;;;8.60;99.90;;;;;;5092431;28;20047;-73
2021/12/14 09:42:33;;;;;;;128.98;46.53;;;8.60;99.90;;;;;;5092813;28;20066;-73
2021/12/14 09:45:12;;;;;;;136.77;50.25;;;8.60;99.90;;;;;;5093381;28;20113;-73
2021/12/14 09:47:38;;;;;;;125.40;47.75;;;8.60;99.90;;;;;;5092422;28;20464;-73
2021/12/14 09:50:11;;;;;;;132.88;50.45;;;8.60;99.90;;;;;;5098311;28;20040;-73
2021/12/14 09:52:43;;;;;;;127.45;51.33;;;8.60;99.90;;;;;;5106198;28;20108;-73
2021/12/14 09:55:15;;;;;;;137.82;50.58;;;8.60;99.90;;;;;;5109941;28;20772;-73
2021/12/14 09:57:50;;;;;;;118.45;48.33;;;8.60;99.90;;;;;;5108920;28;20079;-73
2021/12/14 10:00:41;;;;;;;127.85;50.72;;;8.60;99.90;;;;;;5109836;28;20043;-73
2021/12/14 10:03:08;;;;;;;126.47;50.13;;;8.60;99.90;;;;;;5092020;28;20043;-73
2021/12/14 10:05:48;;;;;;;125.78;47.70;;;8.60;99.90;;;;;;5091692;28;20043;-72
2021/12/14 10:08:18;;;;;;;138.95;50.45;;;8.60;99.90;;;;;;5091393;28;20087;-72
2021/12/14 10:11:06;;;;;;;126.68;51.03;;;8.60;99.90;;;;;;5091023;28;20485;-72
2021/12/14 10:13:34;;;;;;;128.63;49.72;;;8.60;99.90;;;;;;5091920;28;20112;-73
2021/12/14 10:16:02;;;;;;;130.85;50.25;;;8.60;99.90;;;;;;5109930;28;20048;-73
2021/12/14 10:18:37;;;;;;;122.07;48.83;;;8.60;99.90;;;;;;5080753;28;20088;-73
2021/12/14 10:21:08;;;;;;;115.82;45.35;;;8.70;99.90;;;;;;5085956;28;20086;-74
2021/12/14 10:23:35;;;;;;;110.90;47.00;;;8.70;99.90;;;;;;5090506;28;20130;-73
2021/12/14 10:26:03;;;;;;;117.95;49.83;;;8.70;99.90;;;;;;5091146;28;20056;-73
2021/12/14 10:28:30;;;;;;;116.18;47.80;;;8.70;99.90;;;;;;5109241;28;20051;-73
2021/12/14 10:31:03;;;;;;;114.90;45.55;;;8.70;99.90;;;;;;5109807;28;20043;-73
2021/12/14 10:33:32;;;;;;;106.68;48.03;;;8.70;99.90;;;;;;5109678;28;20130;-73
2021/12/14 10:36:04;;;;;;;109.80;47.97;;;8.70;99.90;;;;;;5087365;28;20086;-73
2021/12/14 10:38:38;;;;;;;105.93;45.75;;;8.70;99.90;;;;;;5071373;28;20055;-73
2021/12/14 10:43:54;;;;;;;98.80;45.40;;;8.80;99.90;;;;;;5089165;28;20066;-73
2021/12/14 10:46:25;;;;;;;87.45;42.20;;;8.80;99.90;;;;;;5093318;28;20055;-73
2021/12/14 10:48:53;;;;;;;93.25;40.88;;;8.80;99.90;;;;;;5087728;28;20048;-73
2021/12/14 10:51:23;;;;;;;94.78;42.47;;;8.80;99.90;;;;;;5097255;28;20417;-73
2021/12/14 10:53:50;;;;;;;101.53;43.83;;;8.80;99.90;;;;;;5090862;28;20039;-73
2021/12/14 10:56:20;;;;;;;104.80;43.65;;;8.80;99.90;;;;;;5107113;28;20071;-73
2021/12/14 10:58:56;;;;;;;105.43;43.72;;;8.80;99.90;;;;;;5097460;28;20574;-73
2021/12/14 11:01:29;;;;;;;109.63;46.17;;;8.90;99.90;;;;;;5074698;28;20726;-73
2021/12/14 11:03:59;;;;;;;106.13;43.60;;;8.90;99.90;;;;;;5106163;28;20055;-73
2021/12/14 11:06:29;;;;;;;116.45;46.08;;;8.90;99.90;;;;;;5109145;28;20557;-74
2021/12/14 11:11:33;;;;;;;109.35;45.28;;;8.90;99.90;;;;;;5090250;28;20051;-73
2021/12/14 11:14:02;;;;;;;91.85;41.80;;;8.90;99.90;;;;;;5090526;28;20105;-73
2021/12/14 11:19:39;;;;;;;94.35;42.60;;;8.90;99.90;;;;;;5109037;28;20562;-74
2021/12/14 11:22:20;;;;;;;99.93;43.50;;;8.90;99.90;;;;;;5079731;28;20043;-73
2021/12/14 11:24:52;;;;;;;100.57;42.38;;;8.90;99.90;;;;;;5053928;28;20048;-73
2021/12/14 11:27:25;;;;;;;95.55;41.85;;;8.90;99.90;;;;;;5105510;28;20378;-72
2021/12/14 11:30:11;;;;;;;95.70;43.20;;;8.90;99.90;;;;;;5108575;28;20055;-73
2021/12/14 11:32:41;;;;;;;95.88;41.28;;;8.90;99.90;;;;;;5090947;28;20050;-72
2021/12/14 11:35:27;;;;;;;100.03;43.47;;;8.90;99.90;;;;;;5090656;28;20060;-73
2021/12/14 11:37:55;;;;;;;92.80;41.75;;;8.90;99.90;;;;;;5090607;28;20047;-72
2021/12/14 11:40:24;;;;;;;93.53;41.80;;;9.00;99.90;;;;;;5112671;28;20062;-73
2021/12/14 11:42:50;;;;;;;;;;;9.00;99.90;;;;;;5113665;28;20052;-73
2021/12/14 11:45:18;;;;;;;;;;;9.00;99.90;;;;;;5095222;28;19927;-72
2021/12/14 11:47:49;;;;;;;;;;;9.00;99.90;;;;;;5113378;28;19930;-72
2021/12/14 11:50:24;;;;;;;;;;;9.00;99.90;;;;;;5112797;28;19931;-72
2021/12/14 11:52:59;;;;;;;;;;;9.00;99.90;;;;;;5112762;28;19964;-72
2021/12/14 11:55:28;;;;;;;;;;;9.00;99.90;;;;;;5077831;28;19931;-71
2021/12/14 11:58:01;;;;;;;;;;;9.10;99.90;;;;;;5094365;28;19992;-71
2021/12/14 12:00:27;;;;;;;;;;;9.00;99.90;;;;;;5112752;28;20015;-71
2021/12/14 12:02:53;;;;;;;;;;;9.00;99.90;;;;;;5094398;28;19920;-72
2021/12/14 12:05:21;;;;;;;;;;;9.10;99.90;;;;;;5094397;28;19927;-71
2021/12/14 12:10:49;;;;;;;;;;;9.00;99.90;;;;;;5082414;28;19924;-71
2021/12/14 12:13:15;;;;;;;;;;;9.10;99.90;;;;;;5074401;28;20016;-72
2021/12/14 12:15:42;;;;;;;;;;;9.10;99.90;;;;;;5085093;28;20014;-72
2021/12/14 12:18:08;;;;;;;;;;;9.10;99.90;;;;;;5085046;28;19924;-71
2021/12/14 12:20:37;;;;;;;;;;;9.00;99.90;;;;;;5090484;28;20004;-71
2021/12/14 12:23:14;;;;;;;;;;;9.00;99.90;;;;;;5077285;28;20376;-71
2021/12/14 12:25:44;;;;;;;;;;;9.10;99.90;;;;;;5112586;28;19928;-71
2021/12/14 12:28:12;;;;;;;;;;;9.10;99.90;;;;;;5091345;28;19999;-71
2021/12/14 12:30:39;;;;;;;;;;;9.10;99.90;;;;;;5099865;28;20407;-71
2021/12/14 12:33:13;;;;;;;;;;;9.10;99.90;;;;;;5103216;28;19923;-71
2021/12/14 12:35:45;;;;;;;;;;;9.10;99.90;;;;;;5090841;28;19966;-71
2021/12/14 12:38:22;;;;;;;;;;;9.10;99.90;;;;;;5093900;28;19990;-71
2021/12/14 12:40:50;;;;;;;;;;;9.10;99.90;;;;;;5094098;28;19980;-71
2021/12/14 12:43:19;;;;;;;;;;;9.20;99.90;;;;;;5094142;28;19920;-71
2021/12/14 12:45:58;;;;;;;;;;;9.20;99.90;;;;;;5112433;28;19930;-71
2021/12/14 12:48:36;;;;;;;;;;;9.10;99.90;;;;;;5112057;28;20029;-71
2021/12/14 12:51:02;;;;;;;;;;;9.20;99.90;;;;;;5111132;28;19972;-71
2021/12/14 12:53:28;;;;;;;;;;;9.10;99.90;;;;;;5095027;28;19923;-71
2021/12/14 12:56:02;;;;;;;;;;;9.20;99.90;;;;;;5105955;28;19927;-72
2021/12/14 12:58:28;;;;;;;;;;;9.10;99.90;;;;;;5110286;28;20339;-72
2021/12/14 13:00:56;;;;;;;;;;;9.20;99.90;;;;;;5090385;28;19935;-72
2021/12/14 13:03:25;;;;;;;;;;;9.20;99.90;;;;;;5112104;28;19920;-72
2021/12/14 13:05:53;;;;;;;;;;;9.20;99.90;;;;;;5093199;28;19934;-72
2021/12/14 13:08:24;;;;;;;;;;;9.20;99.90;;;;;;5093011;28;19957;-72
2021/12/14 13:11:05;;;;;;;;;;;9.20;99.90;;;;;;5092816;28;20036;-72
2021/12/14 13:13:32;;;;;;;;;;;9.20;99.90;;;;;;5092717;28;20017;-72
2021/12/14 13:16:00;;;;;;;;;;;9.20;99.90;;;;;;5092885;28;19923;-72
2021/12/14 13:18:34;;;;;;;;;;;9.20;99.90;;;;;;5092692;28;19920;-72
2021/12/14 13:21:06;;;;;;;;;;;9.20;99.90;;;;;;5093150;28;20018;-72
2021/12/14 13:23:40;;;;;;;;;;;9.20;99.90;;;;;;5092892;28;19923;-72
2021/12/14 13:26:18;;;;;;;;;;;9.20;99.90;;;;;;5092451;28;19920;-72
2021/12/14 13:28:43;;;;;;;;;;;9.20;99.90;;;;;;5093010;28;20285;-72
2021/12/14 13:31:09;;;;;;;;;;;9.20;99.90;;;;;;5111156;28;19928;-72
2021/12/14 13:33:34;;;;;;;;;;;9.20;99.90;;;;;;5092606;28;20408;-72
2021/12/14 13:36:00;;;;;;;;;;;9.20;99.90;;;;;;5110444;28;19934;-72
2021/12/14 13:38:25;;;;;;;;;;;9.20;99.90;;;;;;5110900;28;19930;-72
2021/12/14 13:40:53;;;;;;;;;;;9.20;99.90;;;;;;5103809;28;19930;-72
2021/12/14 13:43:19;;;;;;;;;;;9.20;99.90;;;;;;5098777;28;19974;-72
2021/12/14 13:45:55;;;;;;;;;;;9.20;99.90;;;;;;5093040;28;19919;-72
2021/12/14 13:48:26;;;;;;;;;;;9.20;99.90;;;;;;5110488;28;19927;-72
2021/12/14 13:50:53;;;;;;;;;;;9.20;99.90;;;;;;5110970;28;19920;-72
2021/12/14 13:53:19;;;;;;;;;;;9.20;99.90;;;;;;5110553;28;20007;-71
2021/12/14 13:55:45;;;;;;;;;;;9.20;99.90;;;;;;5110754;28;19994;-72
2021/12/14 13:58:19;;;;;;;;;;;9.20;99.90;;;;;;5092662;28;19931;-71
2021/12/14 14:00:54;;;;;;;;;;;9.20;99.90;;;;;;5092222;28;19927;-72